Time,TemperatureF,DewpointF,PressureIn,WindDirection,WindDirectionDegrees,WindSpeedMPH,WindSpeedGustMPH,Humidity,HourlyPrecipIn,Conditions,Clouds,dailyrainin,SolarRadiationWatts/m^2,SoftwareType,DateUTC
2013-11-02 00:02:00,32.0,27.0,-100.00,East,96,0.0,2.0,81,0.00,,,0.01,0.000000,,2013-11-02 06:02:00,
2013-11-02 00:12:00,32.0,27.0,-100.00,East,96,0.0,2.0,81,0.00,,,0.01,0.000000,,2013-11-02 06:12:00,
2013-11-02 00:21:00,32.0,27.0,-100.00,East,96,0.0,2.0,81,0.00,,,0.01,0.000000,,2013-11-02 06:21:00,
2013-11-02 00:52:00,32.0,29.0,-100.00,SE,125,0.0,0.0,87,0.00,,,0.01,0.000000,,2013-11-02 06:52:00,
2013-11-02 01:03:00,32.0,29.0,-100.00,SE,125,0.0,0.0,87,0.00,,,0.01,0.000000,,2013-11-02 07:03:00,
2013-11-02 01:12:00,32.0,29.0,-100.00,SE,125,0.0,0.0,87,0.00,,,0.01,0.000000,,2013-11-02 07:12:00,
2013-11-02 01:21:00,32.0,29.0,-100.00,SE,125,0.0,0.0,87,0.00,,,0.01,0.000000,,2013-11-02 07:21:00,
2013-11-02 01:52:00,31.0,29.0,-100.00,ENE,65,0.0,0.0,92,0.00,,,-99.99,0.000000,,2013-11-02 07:52:00,
2013-11-02 02:02:00,31.0,29.0,-100.00,ENE,65,0.0,0.0,92,0.00,,,-99.99,0.000000,,2013-11-02 08:02:00,
2013-11-02 02:12:00,31.0,29.0,-100.00,ENE,65,0.0,0.0,92,0.00,,,-99.99,0.000000,,2013-11-02 08:12:00,
2013-11-02 02:21:00,31.0,29.0,-100.00,ENE,65,0.0,0.0,92,0.00,,,-99.99,0.000000,,2013-11-02 08:21:00,
2013-11-02 02:52:00,31.0,30.0,-100.00,NNE,23,0.0,0.0,95,0.00,,,0.01,0.000000,,2013-11-02 08:52:00,
2013-11-02 03:02:00,31.0,30.0,-100.00,NNE,23,0.0,0.0,95,0.00,,,0.01,0.000000,,2013-11-02 09:02:00,
2013-11-02 03:11:00,31.0,30.0,-100.00,NNE,23,0.0,0.0,95,0.00,,,0.01,0.000000,,2013-11-02 09:11:00,
2013-11-02 03:21:00,31.0,30.0,-100.00,NNE,23,0.0,0.0,95,0.00,,,0.01,0.000000,,2013-11-02 09:21:00,
2013-11-02 03:53:00,31.0,31.0,-100.00,NNE,20,0.0,5.0,98,0.00,,,0.01,0.000000,,2013-11-02 09:53:00,
2013-11-02 04:03:00,31.0,31.0,-100.00,NNE,20,0.0,5.0,98,0.00,,,0.01,0.000000,,2013-11-02 10:03:00,
2013-11-02 04:12:00,31.0,31.0,-100.00,NNE,20,0.0,5.0,98,0.00,,,0.01,0.000000,,2013-11-02 10:12:00,
2013-11-02 04:23:00,31.0,31.0,-100.00,NNE,20,0.0,5.0,98,0.00,,,0.01,0.000000,,2013-11-02 10:23:00,
2013-11-02 04:53:00,32.0,31.0,-100.00,NNW,333,1.0,5.0,96,0.00,,,0.00,0.000000,,2013-11-02 10:53:00,
2013-11-02 05:02:00,32.0,31.0,-100.00,NNW,333,1.0,5.0,96,0.00,,,0.00,0.000000,,2013-11-02 11:02:00,
2013-11-02 05:12:00,32.0,31.0,-100.00,NNW,333,1.0,5.0,96,0.00,,,0.00,0.000000,,2013-11-02 11:12:00,
2013-11-02 05:22:00,32.0,31.0,-100.00,NNW,333,1.0,5.0,96,0.00,,,0.00,0.000000,,2013-11-02 11:22:00,
2013-11-02 05:52:00,33.0,31.0,-100.00,North,352,0.0,6.0,91,0.00,,,0.00,0.000000,,2013-11-02 11:52:00,
2013-11-02 06:02:00,33.0,31.0,-100.00,North,352,0.0,6.0,91,0.00,,,0.00,0.000000,,2013-11-02 12:02:00,
2013-11-02 06:11:00,33.0,31.0,-100.00,North,352,0.0,6.0,91,0.00,,,0.00,0.000000,,2013-11-02 12:11:00,
2013-11-02 06:21:00,33.0,31.0,-100.00,North,352,0.0,6.0,91,0.00,,,0.00,0.000000,,2013-11-02 12:21:00,
2013-11-02 06:52:00,36.0,26.0,-100.00,SW,230,0.0,5.0,67,0.00,,,0.00,0.000000,,2013-11-02 12:52:00,
2013-11-02 07:02:00,36.0,26.0,-100.00,SW,230,0.0,5.0,67,0.00,,,0.00,0.000000,,2013-11-02 13:02:00,
2013-11-02 07:11:00,36.0,26.0,-100.00,SW,230,0.0,5.0,67,0.00,,,0.00,0.000000,,2013-11-02 13:11:00,
2013-11-02 07:21:00,36.0,26.0,-100.00,SW,230,0.0,5.0,67,0.00,,,0.00,0.000000,,2013-11-02 13:21:00,
2013-11-02 07:52:00,38.0,25.0,-100.00,SSE,149,8.0,10.0,58,0.00,,,0.00,0.000000,,2013-11-02 13:52:00,
2013-11-02 08:01:00,38.0,25.0,-100.00,SSE,149,8.0,10.0,58,0.00,,,0.00,0.000000,,2013-11-02 14:01:00,
2013-11-02 08:21:00,38.0,25.0,-100.00,SSE,149,8.0,10.0,58,0.00,,,0.00,0.000000,,2013-11-02 14:21:00,
2013-11-02 12:12:00,44.0,24.0,-100.00,SE,132,12.0,23.0,45,-99.99,,,-99.99,111.000000,,2013-11-02 18:12:00,
2013-11-02 12:21:00,44.0,24.0,-100.00,SE,132,12.0,23.0,45,-99.99,,,-99.99,111.000000,,2013-11-02 18:21:00,
2013-11-02 12:52:00,49.0,26.0,-100.00,SE,130,12.0,29.0,40,0.00,,,0.00,332.000000,,2013-11-02 18:52:00,
2013-11-02 13:01:00,49.0,26.0,-100.00,SE,130,12.0,29.0,40,0.00,,,0.00,332.000000,,2013-11-02 19:01:00,
2013-11-02 13:11:00,49.0,26.0,-100.00,SE,130,12.0,29.0,40,0.00,,,0.00,332.000000,,2013-11-02 19:11:00,
2013-11-02 13:21:00,49.0,26.0,-100.00,SE,130,12.0,29.0,40,0.00,,,0.00,332.000000,,2013-11-02 19:21:00,
2013-11-02 13:52:00,49.0,25.0,-100.00,SSE,151,9.0,22.0,38,0.00,,,-99.99,417.000000,,2013-11-02 19:52:00,
2013-11-02 14:02:00,49.0,25.0,-100.00,SSE,151,9.0,22.0,38,0.00,,,-99.99,417.000000,,2013-11-02 20:02:00,
2013-11-02 14:12:00,49.0,25.0,-100.00,SSE,151,9.0,22.0,38,0.00,,,-99.99,417.000000,,2013-11-02 20:12:00,
2013-11-02 14:21:00,49.0,25.0,-100.00,SSE,151,9.0,22.0,38,0.00,,,-99.99,417.000000,,2013-11-02 20:21:00,
2013-11-02 14:53:00,48.0,31.0,-100.00,South,185,8.0,19.0,51,0.00,,,0.00,179.000000,,2013-11-02 20:53:00,
2013-11-02 15:02:00,48.0,31.0,-100.00,South,185,8.0,19.0,51,0.00,,,0.00,179.000000,,2013-11-02 21:02:00,
2013-11-02 15:12:00,48.0,31.0,-100.00,South,185,8.0,19.0,51,0.00,,,0.00,179.000000,,2013-11-02 21:12:00,
2013-11-02 15:21:00,48.0,31.0,-100.00,South,185,8.0,19.0,51,0.00,,,0.00,179.000000,,2013-11-02 21:21:00,
2013-11-02 15:54:00,44.0,34.0,-100.00,SE,143,4.0,22.0,67,0.00,,,0.00,143.000000,,2013-11-02 21:54:00,
2013-11-02 16:03:00,44.0,34.0,-100.00,SE,143,4.0,22.0,67,0.00,,,0.00,143.000000,,2013-11-02 22:03:00,
2013-11-02 16:13:00,44.0,34.0,-100.00,SE,143,4.0,22.0,67,0.00,,,0.00,143.000000,,2013-11-02 22:13:00,
2013-11-02 16:24:00,44.0,34.0,-100.00,SE,143,4.0,22.0,67,0.00,,,0.00,143.000000,,2013-11-02 22:24:00,
2013-11-02 16:54:00,48.0,36.0,-100.00,WNW,293,0.0,12.0,63,0.00,,,0.00,116.000000,,2013-11-02 22:54:00,
2013-11-02 17:02:00,48.0,36.0,-100.00,WNW,293,0.0,12.0,63,0.00,,,0.00,116.000000,,2013-11-02 23:02:00,
2013-11-02 17:12:00,48.0,36.0,-100.00,WNW,293,0.0,12.0,63,0.00,,,0.00,116.000000,,2013-11-02 23:12:00,
2013-11-02 17:21:00,48.0,36.0,-100.00,WNW,293,0.0,12.0,63,0.00,,,0.00,116.000000,,2013-11-02 23:21:00,
2013-11-02 17:52:00,45.0,40.0,-100.00,SE,135,2.0,8.0,84,0.02,,,0.02,45.000000,,2013-11-02 23:52:00,
2013-11-02 18:01:00,45.0,40.0,-100.00,SE,135,2.0,8.0,84,0.02,,,0.02,45.000000,,2013-11-03 00:01:00,
2013-11-02 18:11:00,45.0,40.0,-100.00,SE,135,2.0,8.0,84,0.02,,,0.02,45.000000,,2013-11-03 00:11:00,
2013-11-02 18:21:00,45.0,40.0,-100.00,SE,135,2.0,8.0,84,0.02,,,0.02,45.000000,,2013-11-03 00:21:00,
2013-11-02 18:52:00,35.0,35.0,-100.00,ENE,71,2.0,14.0,100,0.07,,,0.09,13.000000,,2013-11-03 00:52:00,
2013-11-02 19:02:00,35.0,35.0,-100.00,ENE,71,2.0,14.0,100,0.07,,,0.09,13.000000,,2013-11-03 01:02:00,
2013-11-02 19:11:00,35.0,35.0,-100.00,ENE,71,2.0,14.0,100,0.07,,,0.09,13.000000,,2013-11-03 01:11:00,
2013-11-02 19:21:00,35.0,35.0,-100.00,ENE,71,2.0,14.0,100,0.07,,,0.09,13.000000,,2013-11-03 01:21:00,
2013-11-02 19:52:00,34.0,34.0,-100.00,East,90,0.0,8.0,100,0.01,,,0.10,0.000000,,2013-11-03 01:52:00,
2013-11-02 20:02:00,34.0,34.0,-100.00,East,90,0.0,8.0,100,0.01,,,0.10,0.000000,,2013-11-03 02:02:00,
2013-11-02 20:11:00,34.0,34.0,-100.00,East,90,0.0,8.0,100,0.01,,,0.10,0.000000,,2013-11-03 02:11:00,
2013-11-02 20:21:00,34.0,34.0,-100.00,East,90,0.0,8.0,100,0.01,,,0.10,0.000000,,2013-11-03 02:21:00,
2013-11-02 20:52:00,35.0,30.0,-100.00,South,186,4.0,4.0,82,0.00,,,0.10,0.000000,,2013-11-03 02:52:00,
2013-11-02 21:02:00,35.0,30.0,-100.00,South,186,4.0,4.0,82,0.00,,,0.10,0.000000,,2013-11-03 03:02:00,
2013-11-02 21:11:00,35.0,30.0,-100.00,South,186,4.0,4.0,82,0.00,,,0.10,0.000000,,2013-11-03 03:11:00,
2013-11-02 21:21:00,35.0,30.0,-100.00,South,186,4.0,4.0,82,0.00,,,0.10,0.000000,,2013-11-03 03:21:00,
2013-11-02 21:54:00,34.0,29.0,-100.00,NNE,30,1.0,30.0,82,0.00,,,0.10,0.000000,,2013-11-03 03:54:00,
2013-11-02 22:02:00,-999.0,-99.9,-100.00,NNE,30,1.0,30.0,-999,-99.99,,,-99.99,0.000000,,2013-11-03 04:02:00,
2013-11-02 22:13:00,34.0,29.0,-100.00,NNE,30,1.0,30.0,82,0.00,,,0.10,0.000000,,2013-11-03 04:13:00,
2013-11-02 22:23:00,34.0,29.0,-100.00,NNE,30,1.0,30.0,82,0.00,,,0.10,0.000000,,2013-11-03 04:23:00,
2013-11-02 22:52:00,32.0,32.0,-100.00,East,89,0.0,9.0,100,0.00,,,0.10,0.000000,,2013-11-03 04:52:00,
2013-11-02 23:03:00,32.0,32.0,-100.00,East,89,0.0,9.0,100,0.00,,,0.10,0.000000,,2013-11-03 05:03:00,
2013-11-02 23:13:00,32.0,32.0,-100.00,East,89,0.0,9.0,100,0.00,,,0.10,0.000000,,2013-11-03 05:13:00,
2013-11-02 23:22:00,32.0,32.0,-100.00,East,89,0.0,9.0,100,0.00,,,0.10,0.000000,,2013-11-03 05:22:00,
2013-11-02 23:53:00,32.0,32.0,-100.00,NNW,327,0.0,7.0,100,0.00,,,0.10,0.000000,,2013-11-03 05:53:00,